Time;durP1;ratioP1;P1;durP2;ratioP2;P2;SDS_P1;SDS_P2;PMS_P1;PMS_P2;Temp;Humidity;BMP_temperature;BMP_pressure;BME280_temperature;BME280_humidity;BME280_pressure;Samples;Min_cycle;Max_cycle;Signal;HPM_P1;HPM_P2
2022/10/20 00:01:10;;;;;;;10.18;5.80;;;;;;;11.29;83.60;101753.72;5040858;28;20032;-77
2022/10/20 00:03:37;;;;;;;14.02;5.90;;;;;;;11.31;83.49;101759.78;5038252;28;20030;-76
2022/10/20 00:06:14;;;;;;;11.88;6.05;;;;;;;11.41;83.58;101754.19;5039915;28;20073;-77
2022/10/20 00:08:40;;;;;;;12.18;5.80;;;;;;;11.33;84.15;101741.81;5037964;28;20082;-77
2022/10/20 00:11:07;;;;;;;11.25;5.97;;;;;;;11.36;83.71;101737.69;5022752;28;20028;-77
2022/10/20 00:13:33;;;;;;;12.65;6.38;;;;;;;11.32;84.02;101728.06;5042413;28;20039;-77
2022/10/20 00:15:59;;;;;;;11.50;6.60;;;;;;;11.31;83.87;101720.28;5038608;28;20040;-77
2022/10/20 00:18:26;;;;;;;11.40;6.32;;;;;;;11.31;83.99;101720.28;5044474;28;20025;-77
2022/10/20 00:20:51;;;;;;;13.43;6.50;;;;;;;11.23;84.41;101722.56;5037421;28;20041;-76
2022/10/20 00:23:17;;;;;;;12.07;6.32;;;;;;;11.24;84.44;101717.47;5040623;28;20021;-76
2022/10/20 00:25:43;;;;;;;14.63;6.60;;;;;;;11.20;84.81;101715.59;5038203;28;20041;-76
2022/10/20 00:28:08;;;;;;;11.48;6.38;;;;;;;11.19;85.16;101719.00;5026278;28;20856;-76
2022/10/20 00:30:34;;;;;;;12.60;6.68;;;;;;;11.18;84.93;101722.38;5039096;28;20024;-76
2022/10/20 00:33:01;;;;;;;15.25;6.28;;;;;;;11.21;84.86;101716.47;5041567;28;20396;-76
2022/10/20 00:35:27;;;;;;;14.57;6.20;;;;;;;11.25;84.94;101726.09;5040237;28;20544;-76
2022/10/20 00:37:52;;;;;;;12.18;6.20;;;;;;;11.23;85.06;101720.00;5038729;28;20124;-75
2022/10/20 00:40:18;;;;;;;14.35;6.40;;;;;;;11.21;84.88;101713.91;5042409;28;20592;-76
2022/10/20 00:42:44;;;;;;;14.15;5.80;;;;;;;11.20;85.04;101720.75;5017237;28;20372;-76
2022/10/20 00:45:16;;;;;;;12.65;6.50;;;;;;;11.25;85.18;101710.63;5036510;28;20034;-76
2022/10/20 00:47:52;;;;;;;9.93;6.28;;;;;;;11.26;85.34;101696.94;5043099;28;20040;-76
2022/10/20 00:50:24;;;;;;;9.30;5.70;;;;;;;11.19;85.44;101688.09;5039733;28;20029;-76
2022/10/20 00:52:51;;;;;;;10.57;6.22;;;;;;;11.24;85.08;101701.16;5038823;28;20025;-76
2022/10/20 00:55:21;;;;;;;16.00;6.95;;;;;;;11.18;85.58;101688.94;5040345;28;20033;-76
2022/10/20 00:57:49;;;;;;;12.18;6.18;;;;;;;11.15;85.41;101691.38;5021427;28;20055;-76
2022/10/20 01:00:15;;;;;;;10.15;6.30;;;;;;;11.14;85.45;101683.59;5039020;28;20029;-76
2022/10/20 01:02:41;;;;;;;12.57;6.35;;;;;;;11.13;85.54;101681.84;5044553;28;20419;-76
2022/10/20 01:05:07;;;;;;;15.50;7.47;;;;;;;11.10;85.77;101680.03;5040779;28;20121;-76
2022/10/20 01:07:33;;;;;;;11.98;6.95;;;;;;;11.12;85.88;101677.50;5037167;28;20045;-76
2022/10/20 01:09:59;;;;;;;11.85;6.68;;;;;;;11.12;85.80;101680.09;5037333;28;20036;-76
2022/10/20 01:12:41;;;;;;;15.98;6.93;;;;;;;11.13;86.05;101675.00;5037252;28;20029;-76
2022/10/20 01:15:25;;;;;;;12.25;6.45;;;;;;;11.16;85.81;101676.78;5037441;28;20129;-76
2022/10/20 01:17:56;;;;;;;17.33;6.65;;;;;;;11.11;86.34;101668.91;5037155;28;20086;-76
2022/10/20 01:20:44;;;;;;;14.00;6.78;;;;;;;11.14;85.90;101658.72;5042928;28;20036;-76
2022/10/20 01:23:18;;;;;;;15.70;6.70;;;;;;;11.12;86.31;101656.94;5036326;28;20052;-76
2022/10/20 01:25:54;;;;;;;9.05;6.43;;;;;;;11.10;86.24;101654.31;5022646;28;20108;-76
2022/10/20 01:28:29;;;;;;;12.55;7.00;;;;;;;11.13;86.41;101635.50;5034804;28;20472;-76
2022/10/20 01:31:02;;;;;;;12.77;7.32;;;;;;;11.12;86.27;101628.63;5042238;28;20052;-77
2022/10/20 01:33:57;;;;;;;13.90;7.30;;;;;;;11.16;85.84;101613.34;5040385;28;20028;-76
2022/10/20 01:36:38;;;;;;;14.18;7.07;;;;;;;11.11;86.29;101611.41;5037400;28;20016;-77
2022/10/20 01:39:13;;;;;;;14.82;7.55;;;;;;;11.09;86.23;101616.47;5034711;28;20037;-76
2022/10/20 01:41:42;;;;;;;10.80;7.20;;;;;;;11.05;86.12;101603.47;5041444;28;20483;-77
2022/10/20 01:44:10;;;;;;;13.70;7.78;;;;;;;11.05;86.38;101609.50;5040481;28;20028;-76
2022/10/20 01:46:39;;;;;;;14.27;7.17;;;;;;;10.96;86.89;101609.13;5039534;28;20033;-76
2022/10/20 01:49:06;;;;;;;14.43;7.40;;;;;;;11.00;86.68;101599.00;5037293;28;20048;-76
2022/10/20 01:51:32;;;;;;;15.95;7.40;;;;;;;10.98;87.07;101594.59;5038380;28;20024;-77
2022/10/20 01:53:57;;;;;;;13.05;7.25;;;;;;;10.98;87.00;101598.09;5040083;28;20052;-76
2022/10/20 01:56:36;;;;;;;15.05;7.10;;;;;;;11.02;86.97;101604.22;5040967;28;20126;-76
2022/10/20 01:59:14;;;;;;;13.43;7.00;;;;;;;11.00;86.75;101617.03;5036534;28;20029;-77
2022/10/20 02:02:09;;;;;;;14.00;7.07;;;;;;;11.01;87.02;101625.63;5018584;28;20430;-77
2022/10/20 02:05:01;;;;;;;12.30;7.40;;;;;;;11.02;86.73;101617.06;5041548;28;20526;-77
2022/10/20 02:07:29;;;;;;;12.70;7.30;;;;;;;10.98;86.88;101615.19;5007632;28;20086;-77
2022/10/20 02:10:04;;;;;;;11.40;7.67;;;;;;;10.97;86.84;101601.44;5037058;28;20047;-76
2022/10/20 02:12:36;;;;;;;14.93;8.10;;;;;;;10.98;86.74;101602.31;5035789;28;20597;-76
2022/10/20 02:15:02;;;;;;;12.15;7.97;;;;;;;10.94;86.87;101585.03;5038357;28;20055;-77
2022/10/20 02:17:28;;;;;;;14.32;7.80;;;;;;;10.95;86.93;101600.53;5039579;28;20119;-77
2022/10/20 02:19:55;;;;;;;14.52;7.35;;;;;;;10.93;87.05;101594.47;5042141;28;20037;-77
2022/10/20 02:22:22;;;;;;;18.27;7.88;;;;;;;10.93;87.06;101585.88;5039908;28;20032;-77
2022/10/20 02:24:48;;;;;;;12.98;8.10;;;;;;;10.96;87.01;101589.41;5037852;28;20059;-77
2022/10/20 02:27:23;;;;;;;13.93;7.80;;;;;;;10.98;86.68;101579.16;5033536;28;20058;-77
2022/10/20 02:29:56;;;;;;;16.13;7.65;;;;;;;10.95;87.05;101579.94;5038333;28;20423;-77
2022/10/20 02:32:23;;;;;;;15.50;7.40;;;;;;;10.92;87.44;101573.78;5036643;28;20029;-76
2022/10/20 02:34:48;;;;;;;13.20;7.80;;;;;;;10.87;87.08;101562.47;5038624;28;20030;-76
2022/10/20 02:37:14;;;;;;;13.85;7.85;;;;;;;10.91;87.07;101559.19;5009911;28;20028;-77
2022/10/20 02:39:39;;;;;;;13.32;7.70;;;;;;;10.91;87.30;101564.31;5021005;28;20041;-77
2022/10/20 02:42:05;;;;;;;11.98;7.68;;;;;;;10.87;87.32;101553.06;5037283;28;20032;-76
2022/10/20 02:44:31;;;;;;;12.55;8.07;;;;;;;10.85;87.72;101533.22;5040121;28;20037;-77
2022/10/20 02:46:56;;;;;;;11.57;8.02;;;;;;;10.84;87.85;101540.06;5041693;28;20083;-77
2022/10/20 02:49:23;;;;;;;14.45;8.80;;;;;;;10.84;88.14;101534.03;5021099;28;20029;-77
2022/10/20 02:51:49;;;;;;;16.63;8.90;;;;;;;10.80;88.59;101524.44;5024105;28;20040;-77
2022/10/20 02:54:14;;;;;;;13.30;8.77;;;;;;;10.80;88.42;101516.72;5016757;28;20120;-77
2022/10/20 02:56:40;;;;;;;17.90;9.13;;;;;;;10.82;88.48;101515.97;5040221;28;20071;-77
2022/10/20 02:59:05;;;;;;;14.13;8.68;;;;;;;10.84;88.71;101514.34;5036878;28;20028;-77
2022/10/20 03:01:30;;;;;;;17.88;9.80;;;;;;;10.83;88.96;101497.16;5020716;28;20094;-77
2022/10/20 03:03:58;;;;;;;15.90;8.98;;;;;;;10.80;89.44;101488.44;5038104;28;20384;-77
2022/10/20 03:06:24;;;;;;;15.00;9.40;;;;;;;10.80;89.68;101488.44;5019053;28;20083;-77
2022/10/20 03:08:50;;;;;;;15.55;8.75;;;;;;;10.79;89.80;101482.41;5037507;28;20549;-77
2022/10/20 03:11:15;;;;;;;13.38;9.02;;;;;;;10.83;89.80;101475.69;5043318;28;20060;-77
2022/10/20 03:13:41;;;;;;;18.95;9.82;;;;;;;10.80;89.82;101470.41;5032023;28;20496;-77
2022/10/20 03:16:06;;;;;;;15.55;9.75;;;;;;;10.75;90.02;101467.72;5016727;28;20095;-77
2022/10/20 03:18:32;;;;;;;12.73;9.45;;;;;;;10.80;89.98;101478.13;5034731;28;20067;-76
2022/10/20 03:20:57;;;;;;;13.30;8.93;;;;;;;10.83;90.08;101473.13;5035077;28;20056;-77
2022/10/20 03:23:22;;;;;;;16.88;9.77;;;;;;;10.82;90.19;101463.66;5040491;28;20032;-76
2022/10/20 03:25:48;;;;;;;20.17;10.02;;;;;;;10.81;90.31;101451.63;5017448;28;20139;-77
2022/10/20 03:28:13;;;;;;;16.30;10.27;;;;;;;10.79;90.75;101454.13;5041835;28;20117;-77
2022/10/20 03:30:39;;;;;;;17.48;9.82;;;;;;;10.82;90.59;101456.81;5037195;28;20021;-77
2022/10/20 03:33:04;;;;;;;13.90;9.88;;;;;;;10.82;90.85;101451.66;5036337;28;20059;-77
2022/10/20 03:35:30;;;;;;;18.60;10.20;;;;;;;10.85;90.97;101450.88;5042004;28;20024;-77
2022/10/20 03:37:55;;;;;;;19.70;9.68;;;;;;;10.83;91.05;101445.69;5042726;28;20040;-77
2022/10/20 03:40:20;;;;;;;23.30;10.98;;;;;;;10.81;90.96;101434.50;5037603;28;20564;-77
2022/10/20 03:42:46;;;;;;;15.50;9.82;;;;;;;10.84;91.41;101441.44;5036662;28;20072;-76
2022/10/20 03:45:11;;;;;;;16.02;9.57;;;;;;;10.85;90.96;101441.47;5038419;28;20040;-77
2022/10/20 03:47:37;;;;;;;18.55;10.52;;;;;;;10.84;91.11;101442.31;5041875;28;20021;-77
2022/10/20 03:50:02;;;;;;;16.88;10.32;;;;;;;10.82;91.33;101435.34;5018900;28;20040;-77
2022/10/20 03:52:28;;;;;;;16.58;10.50;;;;;;;10.82;91.09;101432.78;5043744;28;20025;-76
2022/10/20 03:54:53;;;;;;;17.02;9.88;;;;;;;10.84;91.40;101442.31;5021545;28;20211;-77
2022/10/20 03:57:19;;;;;;;18.60;11.00;;;;;;;10.87;91.18;101442.44;5036631;28;20056;-76
2022/10/20 03:59:45;;;;;;;16.52;10.38;;;;;;;10.87;91.66;101429.56;5039047;28;20037;-76
2022/10/20 04:02:29;;;;;;;14.70;10.60;;;;;;;10.89;91.20;101416.75;5040457;28;20078;-76
2022/10/20 04:04:54;;;;;;;16.58;10.45;;;;;;;10.90;91.10;101423.63;5043572;28;20029;-76
2022/10/20 04:07:20;;;;;;;15.02;10.15;;;;;;;10.87;91.41;101410.69;5007139;28;20044;-76
2022/10/20 04:09:45;;;;;;;16.17;10.63;;;;;;;10.86;91.67;101422.66;5038392;28;20483;-76
2022/10/20 04:12:11;;;;;;;17.10;10.23;;;;;;;10.89;91.41;101427.03;5039658;28;20129;-76
2022/10/20 04:14:36;;;;;;;16.48;9.73;;;;;;;10.89;91.66;101429.59;5042092;28;20143;-76
2022/10/20 04:17:01;;;;;;;16.45;10.25;;;;;;;10.86;92.01;101420.09;5039087;28;20095;-76
2022/10/20 04:19:27;;;;;;;15.65;9.82;;;;;;;10.92;91.64;101421.97;5040859;28;20037;-76
2022/10/20 04:21:52;;;;;;;12.88;9.35;;;;;;;10.90;91.57;101403.06;5042126;28;20064;-76
2022/10/20 04:24:17;;;;;;;14.95;10.20;;;;;;;10.91;91.71;101397.06;5010126;28;20086;-76
2022/10/20 04:26:43;;;;;;;17.38;10.27;;;;;;;10.87;91.96;101395.25;5017084;28;20029;-76
2022/10/20 04:29:08;;;;;;;14.85;9.98;;;;;;;10.91;91.85;101385.09;5024346;28;20114;-76
2022/10/20 04:31:33;;;;;;;14.43;10.18;;;;;;;10.87;91.86;101375.53;5046315;28;20067;-76
2022/10/20 04:33:59;;;;;;;15.10;10.30;;;;;;;10.91;92.12;101372.22;5022183;28;20041;-76
2022/10/20 04:36:24;;;;;;;16.08;10.15;;;;;;;10.92;92.02;101371.44;5042294;28;20518;-76
2022/10/20 04:38:49;;;;;;;13.60;10.00;;;;;;;10.89;92.36;101380.72;5022245;28;20391;-76
2022/10/20 04:41:15;;;;;;;16.92;10.52;;;;;;;10.91;92.47;101382.50;5018205;28;20065;-76
2022/10/20 04:43:40;;;;;;;17.55;10.65;;;;;;;10.94;92.23;101377.50;5043234;28;20075;-76
2022/10/20 04:46:06;;;;;;;17.95;10.68;;;;;;;10.94;92.32;101374.03;5027549;28;20033;-76
2022/10/20 04:48:31;;;;;;;15.80;10.02;;;;;;;10.93;92.57;101370.59;5019312;28;20948;-76
2022/10/20 04:51:01;;;;;;;16.65;10.93;;;;;;;10.95;92.65;101366.38;5043864;28;20099;-76
2022/10/20 04:53:27;;;;;;;18.17;10.60;;;;;;;10.96;92.65;101365.53;5035765;28;20036;-76
2022/10/20 04:55:54;;;;;;;19.48;11.18;;;;;;;10.95;92.73;101363.78;5039927;28;20053;-76
2022/10/20 04:58:19;;;;;;;18.45;10.93;;;;;;;10.94;93.08;101351.75;5037345;28;20025;-76
2022/10/20 05:00:44;;;;;;;16.00;10.80;;;;;;;10.94;93.28;101340.59;5024086;28;20037;-76
2022/10/20 05:03:10;;;;;;;15.23;10.45;;;;;;;11.00;93.18;101343.38;5037042;28;20079;-76
2022/10/20 05:05:35;;;;;;;16.25;11.45;;;;;;;11.00;92.99;101348.53;5019267;28;20063;-76
2022/10/20 05:08:00;;;;;;;15.13;10.60;;;;;;;11.01;93.08;101332.25;5042148;28;20530;-76
2022/10/20 05:10:26;;;;;;;16.65;10.82;;;;;;;11.01;93.25;101337.41;5023880;28;20118;-76
2022/10/20 05:12:51;;;;;;;14.50;10.63;;;;;;;11.02;93.46;101339.16;5037749;28;20381;-76
2022/10/20 05:15:17;;;;;;;17.73;10.52;;;;;;;11.01;93.43;101340.84;5022970;28;20049;-76
2022/10/20 05:17:42;;;;;;;16.92;11.23;;;;;;;11.01;93.58;101342.53;5041028;28;20033;-76
2022/10/20 05:20:08;;;;;;;18.38;10.75;;;;;;;11.04;93.35;101358.06;5045390;28;20053;-77
2022/10/20 05:22:33;;;;;;;15.88;10.77;;;;;;;11.06;93.43;101363.28;5043234;28;20067;-77
2022/10/20 05:24:58;;;;;;;18.33;11.98;;;;;;;11.08;93.38;101357.38;5043452;28;20605;-77
2022/10/20 05:27:25;;;;;;;14.75;10.85;;;;;;;11.09;93.54;101333.38;5022832;28;20117;-77
2022/10/20 05:29:50;;;;;;;16.45;11.27;;;;;;;11.12;93.45;101318.06;5036863;28;20059;-77
2022/10/20 05:32:15;;;;;;;19.73;11.70;;;;;;;11.10;93.91;101305.94;5034828;28;20035;-77
2022/10/20 05:34:42;;;;;;;17.23;11.00;;;;;;;11.08;94.01;101325.63;5043115;28;20480;-77
2022/10/20 05:37:08;;;;;;;17.63;11.10;;;;;;;11.08;94.01;101329.06;5039791;28;20034;-76
2022/10/20 05:39:33;;;;;;;17.15;10.88;;;;;;;11.07;94.00;101327.31;5040741;28;20554;-77
2022/10/20 05:41:58;;;;;;;17.35;11.23;;;;;;;11.10;93.59;101326.53;5038952;28;20479;-77
2022/10/20 05:44:24;;;;;;;18.27;11.13;;;;;;;11.11;93.60;101342.03;5043180;28;20081;-77
2022/10/20 05:46:49;;;;;;;21.50;11.70;;;;;;;11.10;94.08;101334.25;5044708;28;20108;-77
2022/10/20 05:49:16;;;;;;;19.45;12.10;;;;;;;11.12;93.94;101320.63;5046644;28;20040;-77
2022/10/20 05:51:43;;;;;;;18.98;11.88;;;;;;;11.11;94.34;101307.72;5039463;28;20024;-77
2022/10/20 05:54:10;;;;;;;20.55;12.15;;;;;;;11.13;94.54;101309.50;5039350;28;20025;-77
2022/10/20 05:56:36;;;;;;;18.05;11.27;;;;;;;11.13;94.69;101321.50;5036746;28;20028;-76
2022/10/20 05:59:01;;;;;;;18.55;12.15;;;;;;;11.12;95.39;101319.75;5036072;28;20470;-77
2022/10/20 06:01:38;;;;;;;17.40;11.63;;;;;;;11.14;95.55;101324.13;5041458;28;20080;-77
2022/10/20 06:04:05;;;;;;;15.85;11.82;;;;;;;11.19;95.20;101338.00;5041147;28;20044;-77
2022/10/20 06:06:30;;;;;;;19.48;12.20;;;;;;;11.20;95.64;101333.75;5026214;28;20045;-77
2022/10/20 06:08:58;;;;;;;19.42;11.52;;;;;;;11.21;95.42;101333.78;5036098;28;20060;-77
2022/10/20 06:11:24;;;;;;;17.77;11.73;;;;;;;11.24;95.59;101330.44;5037152;28;20060;-77
2022/10/20 06:13:49;;;;;;;19.13;11.98;;;;;;;11.24;95.58;101339.03;5042312;28;20053;-77
2022/10/20 06:16:18;;;;;;;16.75;11.88;;;;;;;11.24;95.98;101330.44;5048807;28;20056;-76
2022/10/20 06:18:43;;;;;;;19.35;12.27;;;;;;;11.26;95.97;101326.22;5041147;28;20044;-76
2022/10/20 06:21:12;;;;;;;17.30;12.68;;;;;;;11.29;96.05;101316.03;5042314;28;20041;-76
2022/10/20 06:23:37;;;;;;;17.58;11.93;;;;;;;11.31;95.92;101313.50;5032655;28;20384;-76
2022/10/20 06:26:08;;;;;;;22.73;12.73;;;;;;;11.31;96.10;101322.09;5036013;28;20072;-77
2022/10/20 06:28:35;;;;;;;16.98;11.48;;;;;;;11.33;95.87;101327.28;5041573;28;20028;-76
2022/10/20 06:31:11;;;;;;;24.05;11.70;;;;;;;11.37;96.10;101321.41;5036150;28;20029;-76
2022/10/20 06:33:37;;;;;;;17.80;11.90;;;;;;;11.36;96.21;101330.84;5043732;28;20032;-76
2022/10/20 06:36:02;;;;;;;16.15;11.68;;;;;;;11.31;96.39;101328.94;5035950;28;20021;-76
2022/10/20 06:38:28;;;;;;;17.58;11.80;;;;;;;11.39;96.08;101328.34;5038279;28;20272;-76
2022/10/20 06:40:53;;;;;;;15.15;11.77;;;;;;;11.39;96.24;101319.75;5022997;28;20082;-76
2022/10/20 06:43:18;;;;;;;15.82;11.40;;;;;;;11.42;96.04;101330.16;5035514;28;20113;-76
2022/10/20 06:45:53;;;;;;;16.77;11.55;;;;;;;11.43;96.37;101321.63;5038198;28;20084;-73
2022/10/20 06:48:18;;;;;;;16.15;10.77;;;;;;;11.44;96.04;101305.34;5039732;28;20027;-72
2022/10/20 06:50:53;;;;;;;16.50;11.07;;;;;;;11.46;96.37;101313.97;5019876;28;20037;-76
2022/10/20 06:53:18;;;;;;;19.65;11.68;;;;;;;11.43;96.12;101295.88;5017038;28;20080;-75
2022/10/20 06:55:43;;;;;;;20.10;11.65;;;;;;;11.44;96.47;101302.75;5036842;28;20326;-76
2022/10/20 06:58:09;;;;;;;18.63;11.63;;;;;;;11.46;nan;101301.09;5042660;28;20029;-76
2022/10/20 07:00:34;;;;;;;18.33;11.25;;;;;;;11.47;96.29;101297.72;5030188;28;20446;-76
2022/10/20 07:02:59;;;;;;;17.25;11.65;;;;;;;11.51;96.29;101299.53;5035051;28;20033;-75
2022/10/20 07:05:25;;;;;;;18.70;11.38;;;;;;;11.52;96.29;101291.84;5040866;28;20451;-76
2022/10/20 07:07:53;;;;;;;18.10;11.15;;;;;;;11.54;96.37;101289.34;5035782;28;20040;-76
2022/10/20 07:10:19;;;;;;;16.60;11.25;;;;;;;11.55;96.28;101291.09;5022277;28;20038;-76
2022/10/20 07:12:44;;;;;;;17.02;11.32;;;;;;;11.55;96.17;101280.78;5042994;28;20037;-76
2022/10/20 07:15:10;;;;;;;17.63;11.27;;;;;;;11.55;96.13;101283.38;5015594;28;20057;-76
2022/10/20 07:17:35;;;;;;;20.15;11.27;;;;;;;11.62;96.56;101297.31;5015822;28;20037;-76
2022/10/20 07:20:00;;;;;;;16.13;10.70;;;;;;;11.62;96.29;101297.31;5041275;28;20045;-76
2022/10/20 07:22:26;;;;;;;16.85;10.77;;;;;;;11.63;96.29;101293.91;5021569;28;20067;-76
2022/10/20 07:24:52;;;;;;;16.67;11.07;;;;;;;11.66;96.35;101304.31;5016447;28;20052;-76
2022/10/20 07:27:17;;;;;;;15.35;10.95;;;;;;;11.65;96.31;101298.28;5043081;28;20048;-76
2022/10/20 07:29:42;;;;;;;16.00;10.90;;;;;;;11.67;96.20;101306.06;5038645;28;20116;-76
2022/10/20 07:32:08;;;;;;;19.90;11.20;;;;;;;11.66;96.74;101305.19;5044107;28;20035;-76
2022/10/20 07:34:33;;;;;;;18.88;10.93;;;;;;;11.65;96.45;101300.88;5020623;28;20030;-76
2022/10/20 07:36:59;;;;;;;16.90;11.27;;;;;;;11.74;96.69;101301.13;5040458;28;20476;-75
2022/10/20 07:39:25;;;;;;;15.75;10.95;;;;;;;11.72;96.69;101300.22;5040370;28;20092;-75
2022/10/20 07:41:51;;;;;;;17.92;11.63;;;;;;;11.78;96.79;101304.69;5037549;28;20499;-75
2022/10/20 07:44:16;;;;;;;15.60;11.18;;;;;;;11.80;96.80;101309.03;5043184;28;20061;-76
2022/10/20 07:46:42;;;;;;;16.05;11.00;;;;;;;11.85;96.87;101301.50;5034362;28;20029;-75
2022/10/20 07:49:07;;;;;;;15.68;11.00;;;;;;;11.86;97.01;101298.09;5050701;28;20120;-74
2022/10/20 07:51:33;;;;;;;20.75;11.27;;;;;;;11.92;97.01;101305.13;5051394;28;20457;-75
2022/10/20 07:54:07;;;;;;;15.43;10.93;;;;;;;11.98;96.97;101307.88;5027516;28;20538;-74
2022/10/20 07:56:35;;;;;;;16.98;11.23;;;;;;;12.00;96.32;101304.50;5034732;28;20041;-75
2022/10/20 07:59:01;;;;;;;18.13;11.40;;;;;;;12.04;96.68;101298.63;5047041;28;20052;-75
2022/10/20 08:01:26;;;;;;;18.73;11.38;;;;;;;12.08;96.35;101297.00;5048917;28;20096;-76
2022/10/20 08:03:52;;;;;;;16.05;11.00;;;;;;;12.13;95.98;101308.31;5046334;28;20033;-75
2022/10/20 08:06:17;;;;;;;16.52;11.90;;;;;;;12.19;96.24;101307.59;5049893;28;20028;-76
2022/10/20 08:08:43;;;;;;;16.95;12.18;;;;;;;12.22;95.76;101300.84;5044145;28;20060;-77
2022/10/20 08:11:09;;;;;;;20.58;12.23;;;;;;;12.29;96.06;101297.59;5030020;28;20037;-74
2022/10/20 08:13:34;;;;;;;22.90;12.30;;;;;;;12.31;95.17;101292.47;5035902;28;20555;-76
2022/10/20 08:16:01;;;;;;;17.02;11.60;;;;;;;12.40;95.43;101286.72;5048931;28;20049;-76
2022/10/20 08:18:27;;;;;;;17.95;11.57;;;;;;;12.41;95.17;101291.91;5047008;28;20025;-75
2022/10/20 08:20:52;;;;;;;20.67;11.70;;;;;;;12.44;95.38;101293.72;5031210;28;20036;-75
2022/10/20 08:23:18;;;;;;;17.73;12.00;;;;;;;12.46;95.00;101297.22;5049218;28;20072;-75
2022/10/20 08:25:43;;;;;;;19.63;11.80;;;;;;;12.49;94.88;101281.78;5035580;28;20391;-74
2022/10/20 08:28:09;;;;;;;17.95;12.98;;;;;;;12.56;94.75;101284.59;5024810;28;20088;-75
2022/10/20 08:30:35;;;;;;;16.35;12.25;;;;;;;12.59;94.55;101294.13;5050839;28;20037;-74
2022/10/20 08:33:00;;;;;;;17.38;12.40;;;;;;;12.63;94.56;101292.50;5048496;28;20116;-74
2022/10/20 08:35:26;;;;;;;18.85;12.35;;;;;;;12.62;94.68;101278.75;5042129;28;20044;-74
2022/10/20 08:37:51;;;;;;;16.52;12.50;;;;;;;12.65;94.36;101283.97;5050937;28;20029;-75
2022/10/20 08:40:24;;;;;;;19.17;11.95;;;;;;;12.66;94.67;101290.88;5047198;28;20568;-75
2022/10/20 08:42:50;;;;;;;17.90;12.35;;;;;;;12.69;94.89;101282.34;5030516;28;20075;-75
2022/10/20 08:45:21;;;;;;;16.73;12.25;;;;;;;12.70;94.51;101284.09;5047829;28;20029;-74
2022/10/20 08:47:52;;;;;;;19.45;12.77;;;;;;;12.69;94.75;101282.34;5049625;28;20100;-75
2022/10/20 08:50:20;;;;;;;17.92;13.35;;;;;;;12.76;95.05;101282.53;5046227;28;20025;-74
2022/10/20 08:52:49;;;;;;;23.05;13.57;;;;;;;12.81;94.82;101280.94;5054341;28;20120;-74
2022/10/20 08:55:30;;;;;;;22.55;12.93;;;;;;;12.95;95.16;101267.50;5028094;28;20104;-74
2022/10/20 08:58:00;;;;;;;18.58;13.00;;;;;;;13.13;95.46;101266.25;5047654;28;20041;-75
2022/10/20 09:00:26;;;;;;;15.70;12.20;;;;;;;13.27;94.43;101264.03;5047317;28;20037;-75
2022/10/20 09:02:51;;;;;;;21.05;13.10;;;;;;;13.34;93.53;101254.69;5049632;28;20037;-75
2022/10/20 09:05:22;;;;;;;16.45;11.43;;;;;;;13.41;93.05;101243.69;5034722;28;20036;-75
2022/10/20 09:07:48;;;;;;;15.90;11.20;;;;;;;13.51;92.97;101255.09;5040085;28;20036;-75
2022/10/20 09:10:24;;;;;;;17.23;11.60;;;;;;;13.53;92.01;101249.13;5048160;28;20060;-75
2022/10/20 09:12:50;;;;;;;20.27;11.10;;;;;;;13.55;91.28;101246.59;5049632;28;20028;-75
2022/10/20 09:15:18;;;;;;;15.68;11.00;;;;;;;13.54;91.90;101256.03;5023883;28;20048;-74
2022/10/20 09:17:59;;;;;;;18.05;10.85;;;;;;;13.57;91.91;101250.06;5043192;28;20047;-74
2022/10/20 09:20:35;;;;;;;16.95;10.77;;;;;;;13.62;91.69;101257.06;5040392;28;20380;-74
2022/10/20 09:23:00;;;;;;;17.48;11.30;;;;;;;13.61;91.43;101257.91;5044968;28;20270;-73
2022/10/20 09:25:26;;;;;;;15.43;10.80;;;;;;;13.60;91.50;101255.31;5038250;28;20043;-73
2022/10/20 09:27:54;;;;;;;16.13;11.07;;;;;;;13.59;91.68;101250.94;5052411;28;20391;-74
2022/10/20 09:30:24;;;;;;;20.67;11.48;;;;;;;13.59;91.91;101253.53;5040838;28;20103;-74
2022/10/20 09:32:50;;;;;;;17.35;10.48;;;;;;;13.59;92.52;101253.53;5050370;28;20024;-74
2022/10/20 09:35:21;;;;;;;17.35;11.07;;;;;;;13.62;92.64;101256.19;5055029;28;20074;-74
2022/10/20 09:38:01;;;;;;;14.85;10.38;;;;;;;13.61;92.74;101245.00;5046395;28;20483;-75
2022/10/20 09:40:27;;;;;;;14.95;10.65;;;;;;;13.59;93.29;101245.78;5049956;28;20032;-74
2022/10/20 09:42:58;;;;;;;14.80;11.00;;;;;;;13.62;93.48;101257.06;5051432;28;20882;-74
2022/10/20 09:45:31;;;;;;;19.73;10.68;;;;;;;13.62;93.04;101257.06;5033031;28;20017;-74
2022/10/20 09:48:29;;;;;;;18.65;11.40;;;;;;;13.66;93.12;101265.78;5045981;28;20032;-74
2022/10/20 09:50:55;;;;;;;19.92;11.20;;;;;;;13.61;93.50;101262.22;5047129;28;20509;-74
2022/10/20 09:53:27;;;;;;;19.05;10.85;;;;;;;13.62;93.48;101262.25;5017066;28;20033;-74
2022/10/20 09:55:54;;;;;;;15.45;10.55;;;;;;;13.63;93.38;101271.72;5049561;28;20020;-75
2022/10/20 09:58:36;;;;;;;17.48;11.45;;;;;;;13.65;93.93;101261.41;5046055;28;20028;-74
2022/10/20 10:01:03;;;;;;;15.45;10.70;;;;;;;13.63;93.64;101256.22;5024876;28;20057;-75
2022/10/20 10:03:44;;;;;;;19.45;10.48;;;;;;;13.65;93.97;101243.34;5054168;28;20048;-75
2022/10/20 10:06:32;;;;;;;21.60;11.10;;;;;;;13.65;94.10;101239.06;5043552;28;20491;-75
2022/10/20 10:08:59;;;;;;;18.42;10.90;;;;;;;13.64;94.51;101236.44;5044672;28;20483;-75
2022/10/20 10:11:33;;;;;;;19.05;12.05;;;;;;;13.64;94.50;101241.59;5042188;28;20035;-74
2022/10/20 10:14:00;;;;;;;17.00;11.50;;;;;;;13.61;94.95;101239.84;5046078;28;20499;-74
2022/10/20 10:16:26;;;;;;;17.90;11.82;;;;;;;13.60;96.02;101237.22;5045482;28;20103;-75
2022/10/20 10:19:01;;;;;;;17.70;12.15;;;;;;;13.64;96.57;101241.59;5012262;28;20036;-75
2022/10/20 10:21:29;;;;;;;17.65;12.05;;;;;;;13.63;97.45;101247.59;5031022;28;20025;-77
2022/10/20 10:24:03;;;;;;;16.38;11.75;;;;;;;13.64;97.03;101239.00;5030562;28;20025;-75
2022/10/20 10:26:44;;;;;;;17.70;13.18;;;;;;;13.65;98.28;101246.81;5046006;28;20394;-76
2022/10/20 10:29:27;;;;;;;21.60;12.88;;;;;;;13.66;98.26;101239.94;5048980;28;20746;-77
2022/10/20 10:32:14;;;;;;;20.35;12.95;;;;;;;13.68;98.51;101231.38;5052960;28;20143;-76
2022/10/20 10:35:03;;;;;;;22.02;12.90;;;;;;;13.68;99.25;101225.31;5049982;28;20025;-76
2022/10/20 10:37:30;;;;;;;21.65;13.32;;;;;;;13.64;100.00;101224.38;5047128;28;20104;-76
2022/10/20 10:39:56;;;;;;;19.13;12.75;;;;;;;13.64;99.83;101220.91;5051413;28;20067;-75
2022/10/20 10:42:39;;;;;;;15.90;12.65;;;;;;;13.64;100.00;101203.69;5050765;28;20048;-76
2022/10/20 10:45:18;;;;;;;23.48;12.80;;;;;;;13.67;100.00;101205.50;5049309;28;20033;-75
2022/10/20 10:47:43;;;;;;;20.85;12.20;;;;;;;13.65;100.00;101196.81;5049302;28;20434;-75
2022/10/20 10:50:21;;;;;;;27.10;13.45;;;;;;;13.69;100.00;101196.06;5053595;28;20031;-75
2022/10/20 10:53:12;;;;;;;20.55;13.20;;;;;;;13.64;100.00;101210.59;5032676;28;20454;-76
2022/10/20 10:56:02;;;;;;;22.02;12.27;;;;;;;13.68;100.00;101213.28;5052970;28;20047;-76
2022/10/20 10:58:41;;;;;;;22.05;12.85;;;;;;;13.65;100.00;101217.50;5049247;28;20107;-76
2022/10/20 11:01:31;;;;;;;18.88;12.73;;;;;;;13.68;100.00;101210.69;5054552;28;20136;-76
2022/10/20 11:04:34;;;;;;;20.10;13.77;;;;;;;13.71;100.00;101214.16;5035945;28;20028;-76
2022/10/20 11:07:27;;;;;;;20.20;12.95;;;;;;;13.69;100.00;101221.91;5052108;28;20033;-76
2022/10/20 11:10:22;;;;;;;19.85;13.52;;;;;;;13.71;100.00;101207.31;5032219;28;20017;-76
2022/10/20 11:12:50;;;;;;;21.80;13.48;;;;;;;13.68;100.00;101200.34;5052472;28;20495;-75
2022/10/20 11:15:30;;;;;;;18.92;13.20;;;;;;;13.71;100.00;101191.81;5049795;28;20045;-75
2022/10/20 11:17:58;;;;;;;22.70;13.25;;;;;;;13.68;100.00;101192.59;5047627;28;20064;-75
2022/10/20 11:20:46;;;;;;;20.10;13.27;;;;;;;13.69;100.00;101190.88;5047630;28;20025;-75